New England — V7HF3 — position and weather

sailwx.info

Track history (hours):
 
Tides and Currents Weather Stations Pressure Air Temp Water Temp Dewpoint Dewpoint Depression Visibility Wind Speed Wind Dir Waves Ship Positions

New England

Last reported at 2016-Sep-21 19:33 UTC. Time now 2016-Sep-25 17:31 UTC.
Position N 42°44' W 070°08'.

Length 183 m; draft 7.4 m.

Type: Ship. MMSI: 538002220.

Date/timePositionNaut miles runAvg speedWind from/ knotsBaromVisibWave heightAir tempDewpointWater temp
2016-Sep-21 19:33N 42°44' W 070°08'4013.4
2016-Sep-21 16:33N 42°23' W 070°54'5 0.7
2016-Sep-21 09:28N 42°24' W 071°01'0 0.0
2016-Sep-21 08:31N 42°24' W 071°01'0 0.1
2016-Sep-21 03:26N 42°24' W 071°01'0 0.0
2016-Sep-21 02:32N 42°24' W 071°01'0 0.0
2016-Sep-20 17:08N 42°24' W 071°01'0 0.0
2016-Sep-20 14:32N 42°24' W 071°01'0 0.0
2016-Sep-20 13:17N 42°24' W 071°01'0 0.0
2016-Sep-20 10:29N 42°24' W 071°01'0 0.0
2016-Sep-20 08:29N 42°24' W 071°01'0 0.0
2016-Sep-20 07:32N 42°24' W 071°01'0 0.0
2016-Sep-20 06:29N 42°24' W 071°01'0 0.0
2016-Sep-20 02:32N 42°24' W 071°01'0 0.0
2016-Sep-19 23:32N 42°24' W 071°01'0 0.0
2016-Sep-19 19:32N 42°24' W 071°01'1 0.6
2016-Sep-19 18:33N 42°23' W 071°01'4 1.8
2016-Sep-19 16:30N 42°20' W 070°58'0 0.0
2016-Sep-19 14:33N 42°20' W 070°58'0 0.0
2016-Sep-19 13:33N 42°20' W 070°58'0 0.1
2016-Sep-19 12:33N 42°20' W 070°58'0 0.2
2016-Sep-19 11:33N 42°20' W 070°58'0 0.0
2016-Sep-19 09:33N 42°20' W 070°58'0 0.0
2016-Sep-19 07:33N 42°20' W 070°58'0 0.0
2016-Sep-19 06:33N 42°20' W 070°58'0 0.1
2016-Sep-19 03:33N 42°20' W 070°58'1 0.9
2016-Sep-19 02:33N 42°20' W 070°57'2211.2
2016-Sep-19 00:33N 42°33' W 070°33'  
Track history (hours):
 
Tides and Currents Weather Stations Pressure Air Temp Water Temp Dewpoint Dewpoint Depression Visibility Wind Speed Wind Dir Waves Ship Positions

New England

Last reported at 2016-Sep-21 19:33 UTC. Time now 2016-Sep-25 17:31 UTC.
Position N 42°44' W 070°08'.

Length 183 m; draft 7.4 m.

Type: Ship. MMSI: 538002220.

Date/timePositionNaut miles runAvg speedWind from/ knotsBaromVisibWave heightAir tempDewpointWater temp
2016-Sep-21 19:33N 42°44' W 070°08'4013.4
2016-Sep-21 16:33N 42°23' W 070°54'5 0.7
2016-Sep-21 09:28N 42°24' W 071°01'0 0.0
2016-Sep-21 08:31N 42°24' W 071°01'0 0.1
2016-Sep-21 03:26N 42°24' W 071°01'0 0.0
2016-Sep-21 02:32N 42°24' W 071°01'0 0.0
2016-Sep-20 17:08N 42°24' W 071°01'0 0.0
2016-Sep-20 14:32N 42°24' W 071°01'0 0.0
2016-Sep-20 13:17N 42°24' W 071°01'0 0.0
2016-Sep-20 10:29N 42°24' W 071°01'0 0.0
2016-Sep-20 08:29N 42°24' W 071°01'0 0.0
2016-Sep-20 07:32N 42°24' W 071°01'0 0.0
2016-Sep-20 06:29N 42°24' W 071°01'0 0.0
2016-Sep-20 02:32N 42°24' W 071°01'0 0.0
2016-Sep-19 23:32N 42°24' W 071°01'0 0.0
2016-Sep-19 19:32N 42°24' W 071°01'1 0.6
2016-Sep-19 18:33N 42°23' W 071°01'4 1.8
2016-Sep-19 16:30N 42°20' W 070°58'0 0.0
2016-Sep-19 14:33N 42°20' W 070°58'0 0.0
2016-Sep-19 13:33N 42°20' W 070°58'0 0.1
2016-Sep-19 12:33N 42°20' W 070°58'0 0.2
2016-Sep-19 11:33N 42°20' W 070°58'0 0.0
2016-Sep-19 09:33N 42°20' W 070°58'0 0.0
2016-Sep-19 07:33N 42°20' W 070°58'0 0.0
2016-Sep-19 06:33N 42°20' W 070°58'0 0.1
2016-Sep-19 03:33N 42°20' W 070°58'1 0.9
2016-Sep-19 02:33N 42°20' W 070°57'2211.2
2016-Sep-19 00:33N 42°33' W 070°33'  

Dump ship's entire track history